Santa Susana, California
Current Conditions -  °F | °C
As of 8:51 PM on Monday 26 Jan 2015 (Local Time) from KVNY Reporting Station
Light Rain Light Rain  
Wind Chill: 57°   Ceiling: 6000
Heat Index: 57°   Visibility: 10mi
Dew Point: 51°   Wind: 3mph
Humidity: 81%   Direction: 90°E
Pressure: 30.09"   Gusts: NA
Location:  34.2903°N, 118.687°W
Report Text: KVNY 270451Z 09003KT 10SM -RA SCT040 OVC060 14/11 A3009 RMK AO2 SLP184 P0001 T01390106
Loading
Personal Weather Stations






























Interactive Weather Map New forecast layout! Learn more

10-Day Weather Forecast

Advertisements
Track Severe Weather on mobile